Latest Coastal Weather Observations for Gannett Cay

IDQ60701

Issued at 11:01 pm EST Friday 27 March 2015 (issued every 10 minutes, with the page automatically refreshed every 10 minutes)

About coastal observations | Map of coastal stations | Coastal observations for QLD | Marine services | Other Formats
Station Details ID: 200831 Name: GANNET CAY Lat: -21.98 Lon: 152.47 Height: 2.3 m
Data from the previous 72 hours. | See also: Recent months for locations in Queensland
Date/Time
EST
Temp

°C
Wind Pressure Rain
since 9am
mm
Weather Cloud Vis
km
Sea
Height
m
Swell
Dir
 
Speed
knots
Gust
knots
hPa Trend Height
m
Period
s
Dir
27/11:00pm 27.0 E 18 21 1016.3 - - - - - - - - -
27/10:30pm 26.7 E 18 20 1016.6 - - - - - - - - -
27/10:00pm 26.7 E 17 19 1016.7 - - - - - - - - -
27/09:30pm 26.9 ESE 17 20 1016.8 - - - - - - - - -
27/09:00pm 26.9 ESE 15 18 1016.7 - - - - - - - - -
27/08:30pm 26.8 ESE 15 17 1016.8 - - - - - - - - -
27/08:00pm 26.7 ESE 15 18 1016.6 - - - - - - - - -
27/07:30pm 26.8 SE 14 16 1016.6 - - - - - - - - -
27/07:00pm 26.8 SE 14 16 1016.2 - - - - - - - - -
27/06:30pm 26.8 SE 13 15 1015.9 - - - - - - - - -
27/06:00pm 26.8 SE 13 15 1015.4 - - - - - - - - -
27/05:30pm 27.1 SE 12 14 1015.3 - - - - - - - - -
27/05:00pm 27.2 SE 11 13 1014.8 - - - - - - - - -
27/04:30pm 27.4 SE 11 15 1014.8 - - - - - - - - -
27/04:00pm 27.6 SE 11 13 1014.5 - - - - - - - - -
27/03:30pm 27.4 SE 11 13 1014.5 - - - - - - - - -
27/03:00pm 27.7 ESE 11 13 1014.4 - - - - - - - - -
27/02:30pm 27.6 ESE 11 13 1014.5 - - - - - - - - -
27/02:00pm 27.6 ESE 10 13 1014.6 - - - - - - - - -
27/01:30pm 27.5 ESE 11 13 1015.1 - - - - - - - - -
27/01:00pm 27.5 ESE 10 13 1015.3 - - - - - - - - -
27/12:30pm 27.5 SE 10 11 1015.9 - - - - - - - - -
27/12:00pm 27.6 ESE 8 10 1016.4 - - - - - - - - -
27/11:30am 27.5 ESE 9 11 1017.1 - - - - - - - - -
27/11:00am 27.5 E 8 10 1017.6 - - - - - - - - -
27/10:30am 27.5 E 9 10 1018.1 - - - - - - - - -
27/10:00am 27.3 ESE 8 11 1018.3 - - - - - - - - -
27/09:30am 27.3 E 10 11 1018.3 - - - - - - - - -
27/09:00am 27.2 E 10 12 1018.3 - - - - - - - - -
27/08:30am 27.0 E 10 12 1018.2 - - - - - - - - -
27/08:00am 27.1 E 11 13 1017.9 - - - - - - - - -
27/07:30am 26.8 E 13 15 1017.6 - - - - - - - - -
27/07:00am 26.9 E 13 16 1017.3 - - - - - - - - -
27/06:30am 26.5 E 16 19 1017.1 - - - - - - - - -
27/06:00am 26.4 E 16 19 1016.6 - - - - - - - - -
27/05:30am 26.4 E 16 18 1016.5 - - - - - - - - -
27/05:00am 26.5 E 16 18 1016.1 - - - - - - - - -
27/04:30am 26.6 E 15 16 1016.1 - - - - - - - - -
27/04:00am 26.6 E 11 13 1015.9 - - - - - - - - -
27/03:30am 26.6 E 13 14 1015.8 - - - - - - - - -
27/03:00am 26.5 E 13 15 1015.5 - - - - - - - - -
27/02:30am 26.6 E 15 16 1015.8 - - - - - - - - -
27/02:00am 26.8 E 15 17 1015.9 - - - - - - - - -
27/01:30am 26.9 E 15 18 1016.2 - - - - - - - - -
27/01:00am 26.9 E 15 17 1016.3 - - - - - - - - -
27/12:30am 26.9 E 15 17 1016.8 - - - - - - - - -
27/12:00am 27.0 E 15 17 1017.0 - - - - - - - - -
 
Date/Time
EST
Temp

°C
Wind Pressure Rain
since 9am
mm
Weather Cloud Vis
km
Sea
Height
m
Swell
Dir
 
Speed
knots
Gust
knots
hPa Trend Height
m
Period
s
Dir
26/11:30pm 26.9 E 16 19 1017.2 - - - - - - - - -
26/11:00pm 27.2 E 16 18 1017.3 - - - - - - - - -
26/10:30pm 27.0 E 13 17 1017.6 - - - - - - - - -
26/10:00pm 27.1 E 13 15 1017.5 - - - - - - - - -
26/09:30pm 27.1 E 13 16 1017.5 - - - - - - - - -
26/09:00pm 27.3 E 13 15 1017.4 - - - - - - - - -
26/08:30pm 27.3 E 14 16 1017.3 - - - - - - - - -
26/08:00pm 27.1 E 14 16 1017.0 - - - - - - - - -
26/07:30pm 27.3 E 14 16 1016.7 - - - - - - - - -
26/07:00pm 27.2 E 14 16 1016.2 - - - - - - - - -
26/06:30pm 27.2 E 14 16 1015.9 - - - - - - - - -
26/06:00pm 27.4 E 13 15 1015.5 - - - - - - - - -
26/05:30pm 27.3 ESE 14 15 1015.3 - - - - - - - - -
26/05:00pm 27.5 E 12 13 1014.8 - - - - - - - - -
26/04:30pm 27.5 E 12 14 1014.6 - - - - - - - - -
26/04:00pm 28.0 E 10 11 1014.4 - - - - - - - - -
26/03:30pm 27.7 E 10 11 1014.5 - - - - - - - - -
26/03:00pm 27.9 E 10 12 1014.6 - - - - - - - - -
26/02:30pm 27.7 E 10 11 1014.8 - - - - - - - - -
26/02:00pm 27.8 E 10 12 1015.0 - - - - - - - - -
26/01:30pm 27.6 E 10 12 1015.3 - - - - - - - - -
26/01:00pm 27.7 E 11 12 1015.5 - - - - - - - - -
26/12:30pm 27.5 E 12 14 1016.1 - - - - - - - - -
26/12:00pm 27.7 E 12 14 1016.3 - - - - - - - - -
26/11:30am 27.5 ENE 12 14 1016.8 - - - - - - - - -
26/11:00am 27.3 E 13 14 1016.9 - - - - - - - - -
26/10:30am 27.4 ENE 12 14 1017.5 - - - - - - - - -
26/10:00am 27.4 E 11 14 1017.5 - - - - - - - - -
26/09:30am 27.6 E 10 12 1017.5 - - - - - - - - -
26/09:00am 27.5 E 13 15 1017.4 - - - - - - - - -
26/08:30am 27.5 E 12 15 1017.2 - - - - - - - - -
26/08:00am 27.3 ENE 13 15 1016.9 - - - - - - - - -
26/07:30am 27.5 E 13 15 1016.9 - - - - - - - - -
26/07:00am 27.3 E 14 15 1016.4 - - - - - - - - -
26/06:30am 27.0 E 14 15 1016.2 - - - - - - - - -
26/06:00am 26.8 E 11 13 1015.9 - - - - - - - - -
26/05:30am 26.8 E 11 13 1015.7 - - - - - - - - -
26/05:00am 26.8 E 10 12 1015.2 - - - - - - - - -
26/04:30am 26.6 E 12 13 1015.0 - - - - - - - - -
26/04:00am 26.6 E 11 13 1014.6 - - - - - - - - -
26/03:30am 26.5 E 12 16 1014.5 - - - - - - - - -
26/03:00am 26.3 ENE 12 15 1014.5 - - - - - - - - -
26/02:30am 26.4 ENE 10 11 1014.8 - - - - - - - - -
26/02:00am 26.2 ENE 11 14 1014.8 - - - - - - - - -
26/01:30am 26.4 ENE 12 14 1015.3 - - - - - - - - -
26/01:00am 26.5 E 11 14 1015.4 - - - - - - - - -
26/12:30am 26.4 E 11 13 1015.8 - - - - - - - - -
26/12:00am 26.3 E 11 13 1015.7 - - - - - - - - -
 
Date/Time
EST
Temp

°C
Wind Pressure Rain
since 9am
mm
Weather Cloud Vis
km
Sea
Height
m
Swell
Dir
 
Speed
knots
Gust
knots
hPa Trend Height
m
Period
s
Dir
25/11:30pm 26.4 E 9 11 1016.0 - - - - - - - - -
25/11:00pm 26.5 E 10 12 1016.0 - - - - - - - - -
25/10:30pm 26.6 E 9 11 1016.2 - - - - - - - - -
25/10:00pm 26.6 E 11 13 1016.3 - - - - - - - - -
25/09:30pm 26.6 E 10 12 1016.5 - - - - - - - - -
25/09:00pm 26.8 ESE 9 12 1016.3 - - - - - - - - -
25/08:30pm 26.7 E 10 12 1016.1 - - - - - - - - -
25/08:00pm 26.7 E 10 13 1015.7 - - - - - - - - -
25/07:30pm 26.6 ESE 10 11 1015.6 - - - - - - - - -
25/07:00pm 26.7 E 10 11 1015.2 - - - - - - - - -
25/06:30pm 26.7 ESE 8 9 1015.2 - - - - - - - - -
25/06:00pm 26.7 ESE 8 10 1014.7 - - - - - - - - -
25/05:30pm 27.2 SE 7 8 1014.6 - - - - - - - - -
25/05:00pm 27.4 SE 8 9 1014.3 - - - - - - - - -
25/04:30pm 27.6 SSE 7 8 1014.4 - - - - - - - - -
25/04:00pm 28.6 SSE 5 7 1014.1 - - - - - - - - -
25/03:30pm 28.3 SSE 5 7 1014.2 - - - - - - - - -
25/03:00pm 28.3 ESE 4 7 1014.2 - - - - - - - - -
25/02:30pm 28.5 SE 5 7 1014.4 - - - - - - - - -
25/02:00pm 28.9 ESE 5 6 1014.4 - - - - - - - - -
25/01:30pm 29.4 NE 1 4 1014.6 - - - - - - - - -
25/01:00pm 27.8 ENE 4 5 1014.7 - - - - - - - - -
25/12:30pm 27.5 ENE 4 6 1015.0 - - - - - - - - -
25/12:00pm 27.4 E 5 6 1015.3 - - - - - - - - -
25/11:30am 27.4 E 5 7 1015.9 - - - - - - - - -
25/11:00am 27.9 E 5 6 1016.1 - - - - - - - - -
25/10:30am 27.1 E 6 7 1016.2 - - - - - - - - -
25/10:00am 27.2 E 5 6 1016.1 - - - - - - - - -
25/09:30am 27.4 E 5 7 1016.2 - - - - - - - - -
25/09:00am 27.0 ENE 6 8 1016.1 - - - - - - - - -
25/08:30am 26.9 ENE 8 9 1015.9 - - - - - - - - -
25/08:00am 26.9 ENE 8 9 1015.6 - - - - - - - - -
25/07:30am 27.1 NE 8 9 1015.4 - - - - - - - - -
25/07:00am 27.0 NE 7 9 1015.0 - - - - - - - - -
25/06:30am 26.6 NE 7 9 1014.8 - - - - - - - - -
25/06:00am 26.3 NNE 6 8 1014.5 - - - - - - - - -
25/05:30am 26.4 NNE 4 6 1014.4 - - - - - - - - -
25/05:00am 26.5 NE 5 7 1014.1 - - - - - - - - -
25/04:30am 26.4 NE 7 8 1013.9 - - - - - - - - -
25/04:00am 26.3 NE 9 11 1013.5 - - - - - - - - -
25/03:30am 26.3 NE 11 13 1013.3 - - - - - - - - -
25/03:00am 26.4 NE 11 13 1013.1 - - - - - - - - -
25/02:30am 26.5 NE 10 12 1013.4 - - - - - - - - -
25/02:00am 26.5 NE 11 13 1013.4 - - - - - - - - -
25/01:30am 26.5 NE 10 12 1013.8 - - - - - - - - -
25/01:00am 26.7 ENE 10 13 1014.0 - - - - - - - - -
25/12:30am 26.6 ENE 9 11 1014.5 - - - - - - - - -
25/12:00am 26.5 NE 9 11 1014.7 - - - - - - - - -
 
Date/Time
EST
Temp

°C
Wind Pressure Rain
since 9am
mm
Weather Cloud Vis
km
Sea
Height
m
Swell
Dir
 
Speed
knots
Gust
knots
hPa Trend Height
m
Period
s
Dir
24/11:30pm 26.2 NE 7 8 1015.1 - - - - - - - - -

Other Formats:

Comma delimited format used in spreadsheet applications
http://www.bom.gov.au/fwo/IDQ60701/IDQ60701.94379.axf

JavaScript Object Notation format (JSON) in row-major order
http://www.bom.gov.au/fwo/IDQ60701/IDQ60701.94379.json